Bookmark and Share
Track history (hours):
 

Ocean Tomo

Last reported at 2014-Apr-16 23:03 UTC. Time now 2014-Apr-21 10:18 UTC.
Position N 69°31' E 014°20'.

Length 190 m; draft 6.8 m.

Type: Ship. MMSI: 372951000.

NotesDate/timePositionNaut miles runAvg speedWind from/ knotsBaromVisibWave heightAir tempDewpointWater temp
2014-Apr-16 23:03N 69°31' E 014°20'  
2014-Apr-13 10:07N 55°57' W 007°11'5 8.7
2014-Apr-13 09:33N 55°53' W 007°06'8 8.3
2014-Apr-13 08:33N 55°47' W 006°56'7 7.3
2014-Apr-13 07:34N 55°42' W 006°47'7 6.8
2014-Apr-13 06:33N 55°38' W 006°37'7 7.1
2014-Apr-13 05:34N 55°34' W 006°26'7 7.2
2014-Apr-13 04:34N 55°30' W 006°16'9 9.1
2014-Apr-13 03:33N 55°25' W 006°03'1212.5
2014-Apr-13 02:34N 55°15' W 005°51'1413.8
2014-Apr-13 01:34N 55°03' W 005°37'1514.5
2014-Apr-13 00:33N 54°51' W 005°23'1413.8
2014-Apr-12 23:33N 54°38' W 005°14'1413.9
2014-Apr-12 22:33N 54°24' W 005°14'1413.5
2014-Apr-12 21:33N 54°11' W 005°14'10213.6
2014-Apr-12 14:03N 52°29' W 005°30'1012.1
2014-Apr-12 13:15N 52°20' W 005°34'91 1.9
2014-Apr-10 13:33N 50°50' W 005°07'1514.5
2014-Apr-10 12:33N 50°40' W 005°23'1514.5
2014-Apr-10 11:32N 50°30' W 005°40'86 6.9
2014-Apr-09 23:09N 49°57' W 003°36'2514.4
2014-Apr-09 21:25N 49°60' W 002°57'1714.6
2014-Apr-09 20:17N 50°04' W 002°32'1314.3
2014-Apr-09 19:21N 50°07' W 002°12'1113.4
2014-Apr-09 18:33N 50°10' W 001°56'1312.8
2014-Apr-09 17:33N 50°13' W 001°37'1212.3
2014-Apr-09 16:33N 50°17' W 001°18'1212.3
2014-Apr-09 15:33N 50°20' W 000°59'1412.8
2014-Apr-09 14:27N 50°23' W 000°38'1213.2
2014-Apr-09 13:33N 50°27' W 000°20'1613.9
2014-Apr-09 12:24N 50°31' E 000°04'1214.5
2014-Apr-09 11:33N 50°34' E 000°23'1414.1
2014-Apr-09 10:33N 50°40' E 000°43'1414.2
2014-Apr-09 09:33N 50°49' E 001°00'1413.6
2014-Apr-09 08:33N 50°58' E 001°16'1312.8
2014-Apr-09 07:33N 51°07' E 001°32'1312.6
2014-Apr-09 06:33N 51°15' E 001°47'1313.2
2014-Apr-09 05:34N 51°26' E 001°58'1312.8
2014-Apr-09 04:33N 51°36' E 002°12'1414.1
2014-Apr-09 03:33N 51°46' E 002°27'38612.7
2014-Apr-07 21:09N 57°23' E 007°51'6213.4
2014-Apr-07 16:32N 57°46' E 009°38'1313.6
2014-Apr-07 15:33N 57°46' E 010°03'1313.1
2014-Apr-07 14:33N 57°47' E 010°28'1212.3
2014-Apr-07 13:33N 57°46' E 010°51'1414.3
2014-Apr-07 12:33N 57°36' E 011°10'1413.6
2014-Apr-07 11:34N 57°26' E 011°27'1414.3
2014-Apr-07 10:33N 57°12' E 011°36'1414.1
2014-Apr-07 09:33N 56°59' E 011°45'1414.3
2014-Apr-07 08:33N 56°46' E 011°54'  

Dump ship's entire track history

sailing weather and tide predictions

Ocean Tomo — 3FID9 — position and weather